Observation data for Haskell on 11/15/2019      Previous  Date       Current Mesonet Observations  Soil Data  Daily Summary Page  Observations in Plain Language
KHA1 150600Z 28002KT 01/M01 A3043 RMK A01 T00061013  RH  088%=      5-min Rain = 0
KHA1 150605Z 28003KT 01/M01 A3043 RMK A01 T00061012  RH  088%=      5-min Rain = 0
KHA1 150610Z 28002KT 01/M01 A3043 RMK A01 T00081012  RH  088%=      5-min Rain = 0
KHA1 150615Z 27003KT 01/M01 A3043 RMK A01 T00081011  RH  088%=      5-min Rain = 0
KHA1 150620Z 27003KT 01/M01 A3043 RMK A01 T00091010  RH  088%=      5-min Rain = 0
KHA1 150625Z 27003KT 01/M01 A3043 RMK A01 T00061014  RH  087%=      5-min Rain = 0
KHA1 150630Z 27003KT 01/M02 A3043 RMK A01 T00051015  RH  087%=      5-min Rain = 0
KHA1 150635Z 27003KT 00/M02 A3043 RMK A01 T00011019  RH  087%=      5-min Rain = 0
KHA1 150640Z 27002KT 00/02 A3043 RMK A01 T00000-19  RH  087%=      5-min Rain = 0
KHA1 150645Z 28002KT 00/M02 A3043 RMK A01 T00011018  RH  088%=      5-min Rain = 0
KHA1 150650Z 28002KT 00/M02 A3043 RMK A01 T00011018  RH  088%=      5-min Rain = 0
KHA1 150655Z 28003KT 00/M02 A3043 RMK A01 T00011018  RH  088%=      5-min Rain = 0
KHA1 150700Z 29002KT 00/M02 A3043 RMK A01 T00011017  RH  088%=      5-min Rain = 0
KHA1 150705Z 28003KT 00/M01 A3043 RMK A01 T00041014  RH  089%=      5-min Rain = 0
KHA1 150710Z 28004KT 01/M01 A3043 RMK A01 T00071012  RH  088%=      5-min Rain = 0
KHA1 150715Z 28003KT 01/M01 A3042 RMK A01 T00051014  RH  088%=      5-min Rain = 0
KHA1 150720Z 28002KT 01/M01 A3042 RMK A01 T00061013  RH  088%=      5-min Rain = 0
KHA1 150725Z 28003KT 01/M01 A3042 RMK A01 T00071011  RH  088%=      5-min Rain = 0
KHA1 150730Z 28003KT 01/M01 A3042 RMK A01 T00071012  RH  088%=      5-min Rain = 0
KHA1 150735Z 27003KT 01/M01 A3042 RMK A01 T00091011  RH  088%=      5-min Rain = 0
KHA1 150740Z 28005KT 01/M01 A3042 RMK A01 T00081012  RH  087%=      5-min Rain = 0
KHA1 150745Z 28005KT 01/M02 A3042 RMK A01 T00051016  RH  087%=      5-min Rain = 0
KHA1 150750Z 28004KT 00/02 A3042 RMK A01 T00000-21  RH  087%=      5-min Rain = 0
KHA1 150755Z 28005KT M01/M03 A3042 RMK A01 T10061026  RH  087%=      5-min Rain = 0
KHA1 150800Z 28005KT M01/M03 A3042 RMK A01 T10071026  RH  088%=      5-min Rain = 0
KHA1 150805Z 28006KT M01/M02 A3042 RMK A01 T10051023  RH  088%=      5-min Rain = 0
KHA1 150810Z 28005KT M00/M02 A3042 RMK A01 T10021019  RH  089%=      5-min Rain = 0
KHA1 150815Z 29005KT 00/M02 A3042 RMK A01 T00011017  RH  089%=      5-min Rain = 0
KHA1 150820Z 28004KT M00/M02 A3041 RMK A01 T10011019  RH  088%=      5-min Rain = 0
KHA1 150825Z 28004KT 00/02 A3041 RMK A01 T00-00-18  RH  088%=      5-min Rain = 0
KHA1 150830Z 28004KT 00/M02 A3041 RMK A01 T00021016  RH  089%=      5-min Rain = 0
KHA1 150835Z 28005KT 01/M01 A3041 RMK A01 T00061011  RH  089%=      5-min Rain = 0
KHA1 150840Z 28005KT 01/M01 A3041 RMK A01 T00081011  RH  088%=      5-min Rain = 0
KHA1 150845Z 28007KT 01/M01 A3041 RMK A01 T00051014  RH  088%=      5-min Rain = 0
KHA1 150850Z 28007KT 00/M02 A3041 RMK A01 T00031017  RH  087%=      5-min Rain = 0
KHA1 150855Z 29005KT 00/M02 A3041 RMK A01 T00031017  RH  088%=      5-min Rain = 0
KHA1 150900Z 29005KT 00/M02 A3041 RMK A01 T00011019  RH  087%=      5-min Rain = 0
KHA1 150905Z 29005KT 00/02 A3041 RMK A01 T00-00-19  RH  088%=      5-min Rain = 0
KHA1 150910Z 29005KT 00/02 A3041 RMK A01 T00000-19  RH  088%=      5-min Rain = 0
KHA1 150915Z 29003KT 00/02 A3041 RMK A01 T00-00-19  RH  088%=      5-min Rain = 0
KHA1 150920Z 29003KT 00/02 A3041 RMK A01 T00000-18  RH  088%=      5-min Rain = 0
KHA1 150925Z 28003KT 00/M02 A3041 RMK A01 T00021016  RH  089%=      5-min Rain = 0
KHA1 150930Z 28005KT 01/M01 A304 RMK A01 T00081010  RH  089%=      5-min Rain = 0
KHA1 150935Z 28005KT 01/M01 A304 RMK A01 T00071013  RH  087%=      5-min Rain = 0
KHA1 150940Z 28005KT 01/M02 A304 RMK A01 T00061015  RH  087%=      5-min Rain = 0
KHA1 150945Z 28005KT 00/M02 A304 RMK A01 T00041016  RH  087%=      5-min Rain = 0
KHA1 150950Z 29005KT 00/M02 A304 RMK A01 T00021018  RH  087%=      5-min Rain = 0
KHA1 150955Z 29005KT 00/M02 A304 RMK A01 T00011019  RH  087%=      5-min Rain = 0
KHA1 151000Z 28004KT M00/M02 A304 RMK A01 T10011021  RH  087%=      5-min Rain = 0
KHA1 151005Z 29003KT M00/M02 A304 RMK A01 T10041024  RH  087%=      5-min Rain = 0
KHA1 151010Z 29004KT M00/M02 A304 RMK A01 T10031023  RH  087%=      5-min Rain = 0
KHA1 151015Z 29003KT M00/M02 A304 RMK A01 T10031022  RH  088%=      5-min Rain = 0
KHA1 151020Z 29003KT M00/M02 A304 RMK A01 T10011020  RH  088%=      5-min Rain = 0
KHA1 151025Z 30004KT M00/M02 A304 RMK A01 T10011020  RH  088%=      5-min Rain = 0
KHA1 151030Z 29003KT M01/M02 A304 RMK A01 T10051024  RH  088%=      5-min Rain = 0
KHA1 151035Z 29003KT M00/M02 A304 RMK A01 T10041022  RH  089%=      5-min Rain = 0
KHA1 151040Z 28003KT M00/M02 A304 RMK A01 T10031020  RH  089%=      5-min Rain = 0
KHA1 151045Z 29003KT M00/M02 A3041 RMK A01 T10041022  RH  088%=      5-min Rain = 0
KHA1 151050Z 29002KT M01/M02 A3041 RMK A01 T10051022  RH  089%=      5-min Rain = 0
KHA1 151055Z 28003KT M01/M02 A3041 RMK A01 T10061023  RH  089%=      5-min Rain = 0
KHA1 151100Z 28002KT M01/M02 A3041 RMK A01 T10071024  RH  089%=      5-min Rain = 0
KHA1 151105Z 26001KT M01/M02 A3041 RMK A01 T10061022  RH  090%=      5-min Rain = 0
KHA1 151110Z 28001KT M01/M02 A3041 RMK A01 T10051022  RH  090%=      5-min Rain = 0
KHA1 151115Z 26002KT M00/M02 A3041 RMK A01 T10031019  RH  090%=      5-min Rain = 0
KHA1 151120Z 26002KT 00/M01 A3041 RMK A01 T00021014  RH  090%=      5-min Rain = 0
KHA1 151125Z 25002KT 00/M01 A3041 RMK A01 T00031013  RH  089%=      5-min Rain = 0
KHA1 151130Z 22002KT 00/M01 A3041 RMK A01 T00041013  RH  089%=      5-min Rain = 0
KHA1 151135Z 20002KT M00/M02 A3041 RMK A01 T10041024  RH  087%=      5-min Rain = 0
KHA1 151140Z 23001KT M01/M02 A304 RMK A01 T10071024  RH  089%=      5-min Rain = 0
KHA1 151145Z 24001KT M00/M02 A304 RMK A01 T10031020  RH  089%=      5-min Rain = 0
KHA1 151150Z 25001KT M00/M02 A304 RMK A01 T10031020  RH  089%=      5-min Rain = 0
KHA1 151155Z 25002KT M00/M02 A304 RMK A01 T10041021  RH  089%=      5-min Rain = 0
KHA1 151200Z 23002KT M01/M02 A304 RMK A01 T10051021  RH  089%=      5-min Rain = 0
KHA1 151205Z 20002KT M01/M02 A304 RMK A01 T10051020  RH  090%=      5-min Rain = 0
KHA1 151210Z 19002KT M01/M02 A304 RMK A01 T10081024  RH  089%=      5-min Rain = 0
KHA1 151215Z 19002KT M01/M03 A304 RMK A01 T10101026  RH  090%=      5-min Rain = 0
KHA1 151220Z 18002KT M01/M03 A304 RMK A01 T10121027  RH  090%=      5-min Rain = 0
KHA1 151225Z 17002KT M01/M03 A304 RMK A01 T10111025  RH  091%=      5-min Rain = 0
KHA1 151230Z 16002KT M01/M03 A304 RMK A01 T10111026  RH  090%=      5-min Rain = 0
KHA1 151235Z 16001KT M01/M03 A304 RMK A01 T10111026  RH  091%=      5-min Rain = 0
KHA1 151240Z 17002KT M01/M02 A304 RMK A01 T10091023  RH  091%=      5-min Rain = 0
KHA1 151245Z 18002KT M01/M02 A304 RMK A01 T10091022  RH  091%=      5-min Rain = 0
KHA1 151250Z 19001KT M01/M03 A304 RMK A01 T10111025  RH  091%=      5-min Rain = 0
KHA1 151255Z 20003KT M01/M03 A304 RMK A01 T10131027  RH  091%=      5-min Rain = 0
KHA1 151300Z 19004KT M02/M04 A304 RMK A01 T10201035  RH  090%=      5-min Rain = 0
KHA1 151305Z 19004KT M02/M03 A304 RMK A01 T10201033  RH  092%=      5-min Rain = 0
KHA1 151310Z 20004KT M02/M03 A3041 RMK A01 T10171029  RH  092%=      5-min Rain = 0
KHA1 151315Z 20004KT M02/M03 A3041 RMK A01 T10191032  RH  092%=      5-min Rain = 0
KHA1 151320Z 20004KT M02/M03 A3041 RMK A01 T10201032  RH  092%=      5-min Rain = 0
KHA1 151325Z 20004KT M02/M03 A3041 RMK A01 T10201032  RH  092%=      5-min Rain = 0
KHA1 151330Z 21004KT M02/M03 A3042 RMK A01 T10201032  RH  092%=      5-min Rain = 0
KHA1 151335Z 21004KT M02/M03 A3042 RMK A01 T10181029  RH  093%=      5-min Rain = 0
KHA1 151340Z 21005KT M01/M02 A3042 RMK A01 T10131024  RH  093%=      5-min Rain = 0
KHA1 151345Z 21005KT M01/M02 A3042 RMK A01 T10101022  RH  093%=      5-min Rain = 0
KHA1 151350Z 20005KT M01/M02 A3041 RMK A01 T10071018  RH  093%=      5-min Rain = 0
KHA1 151355Z 20005KT M00/M02 A3042 RMK A01 T10041016  RH  093%=      5-min Rain = 0
KHA1 151400Z 19004KT M00/M01 A3042 RMK A01 T10011012  RH  093%=      5-min Rain = 0
KHA1 151405Z 19004KT 00/M01 A3042 RMK A01 T00021010  RH  093%=      5-min Rain = 0
KHA1 151410Z 19005KT 01/M01 A3042 RMK A01 T00051007  RH  092%=      5-min Rain = 0
KHA1 151415Z 20006KT 01/M01 A3042 RMK A01 T00081006  RH  092%=      5-min Rain = 0
KHA1 151420Z 20004KT 01/M00 A3042 RMK A01 T00121003  RH  091%=      5-min Rain = 0
KHA1 151425Z 20003KT 02/00 A3042 RMK A01 T001500-0  RH  091%=      5-min Rain = 0
KHA1 151430Z 19004KT 02/00 A3042 RMK A01 T00190002  RH  090%=      5-min Rain = 0
KHA1 151435Z 19004KT 02/00 A3042 RMK A01 T00210004  RH  089%=      5-min Rain = 0
KHA1 151440Z 20004KT 02/01 A3042 RMK A01 T00230005  RH  089%=      5-min Rain = 0
KHA1 151445Z 19004KT 03/01 A3042 RMK A01 T00250005  RH  088%=      5-min Rain = 0
KHA1 151450Z 19004KT 03/01 A3042 RMK A01 T00290007  RH  087%=      5-min Rain = 0
KHA1 151455Z 19005KT 03/01 A3042 RMK A01 T00330010  RH  086%=      5-min Rain = 0
KHA1 151500Z 19005KT 04/01 A3042 RMK A01 T00370011  RH  084%=      5-min Rain = 0
KHA1 151505Z 18005KT 04/01 A3042 RMK A01 T00410012  RH  083%=      5-min Rain = 0
KHA1 151510Z 18004KT 04/01 A3042 RMK A01 T00430013  RH  082%=      5-min Rain = 0
KHA1 151515Z 19004KT 05/01 A3042 RMK A01 T00460014  RH  081%=      5-min Rain = 0
KHA1 151520Z 20005KT 05/01 A3043 RMK A01 T00480013  RH  079%=      5-min Rain = 0
KHA1 151525Z 19005KT 05/01 A3043 RMK A01 T00510014  RH  078%=      5-min Rain = 0
KHA1 151530Z 19005KT 06/02 A3043 RMK A01 T00550016  RH  077%=      5-min Rain = 0
KHA1 151535Z 19004KT 06/02 A3043 RMK A01 T00580017  RH  076%=      5-min Rain = 0
KHA1 151540Z 20004KT 06/02 A3043 RMK A01 T00610019  RH  075%=      5-min Rain = 0
KHA1 151545Z 20004KT 06/02 A3043 RMK A01 T00630018  RH  074%=      5-min Rain = 0
KHA1 151550Z 20004KT 07/02 A3043 RMK A01 T00660020  RH  073%=      5-min Rain = 0
KHA1 151555Z 20003KT 07/02 A3043 RMK A01 T00700021  RH  072%=      5-min Rain = 0
KHA1 151600Z 21004KT 07/02 A3043 RMK A01 T00740020  RH  070%=      5-min Rain = 0
KHA1 151605Z 20004KT 08/02 A3043 RMK A01 T00770020  RH  068%=      5-min Rain = 0
KHA1 151610Z 20004KT 08/02 A3043 RMK A01 T00820022  RH  067%=      5-min Rain = 0
KHA1 151615Z 21005KT 09/02 A3043 RMK A01 T00850021  RH  065%=      5-min Rain = 0
KHA1 151620Z 19004KT 09/02 A3043 RMK A01 T00850018  RH  064%=      5-min Rain = 0
KHA1 151625Z 17005KT 09/02 A3042 RMK A01 T00870017  RH  062%=      5-min Rain = 0
KHA1 151630Z 17005KT 09/01 A3042 RMK A01 T00880013  RH  060%=      5-min Rain = 0
KHA1 151635Z 18005KT 09/02 A3042 RMK A01 T00920016  RH  060%=      5-min Rain = 0
KHA1 151640Z 18006KT 10/01 A3042 RMK A01 T00950014  RH  058%=      5-min Rain = 0
KHA1 151645Z 18006KT 10/01 A3042 RMK A01 T00950013  RH  057%=      5-min Rain = 0
KHA1 151650Z 19006KT 10/01 A3041 RMK A01 T00990014  RH  056%=      5-min Rain = 0
KHA1 151655Z 19006KT 10/02 A3041 RMK A01 T01000015  RH  056%=      5-min Rain = 0
KHA1 151700Z 19007KT 10/02 A3041 RMK A01 T01030015  RH  055%=      5-min Rain = 0
KHA1 151705Z 20005KT 10/02 A3041 RMK A01 T01040017  RH  056%=      5-min Rain = 0
KHA1 151710Z 20006KT 11/02 A3041 RMK A01 T01070017  RH  055%=      5-min Rain = 0
KHA1 151715Z 21006KT 11/02 A304 RMK A01 T01100018  RH  054%=      5-min Rain = 0
KHA1 151720Z 20006KT 11/02 A304 RMK A01 T01110016  RH  053%=      5-min Rain = 0
KHA1 151725Z 19006KT 11/02 A304 RMK A01 T01110016  RH  053%=      5-min Rain = 0
KHA1 151730Z 19006KT 11/02 A304 RMK A01 T01130015  RH  052%=      5-min Rain = 0
KHA1 151735Z 19007KT 12/01 A3039 RMK A01 T01160014  RH  050%=      5-min Rain = 0
KHA1 151740Z 20006KT 12/02 A3039 RMK A01 T01190017  RH  050%=      5-min Rain = 0
KHA1 151745Z 18004KT 12/01 A3038 RMK A01 T01190012  RH  049%=      5-min Rain = 0
KHA1 151750Z 20005KT 12/01 A3038 RMK A01 T01210013  RH  048%=      5-min Rain = 0
KHA1 151755Z 21006KT 12/01 A3038 RMK A01 T01230012  RH  047%=      5-min Rain = 0
KHA1 151800Z 18006KT 12/01 A3038 RMK A01 T01230012  RH  047%=      5-min Rain = 0
KHA1 151805Z 19006KT 13/01 A3038 RMK A01 T01250012  RH  047%=      5-min Rain = 0
KHA1 151810Z 21007KT 13/01 A3038 RMK A01 T01260011  RH  046%=      5-min Rain = 0
KHA1 151815Z 20006KT 13/01 A3037 RMK A01 T01260009  RH  045%=      5-min Rain = 0
KHA1 151820Z 20006KT 13/01 A3037 RMK A01 T01280008  RH  045%=      5-min Rain = 0
KHA1 151825Z 19008KT 13/01 A3037 RMK A01 T01280005  RH  044%=      5-min Rain = 0
KHA1 151830Z 20007KT 13/01 A3036 RMK A01 T01300008  RH  044%=      5-min Rain = 0
KHA1 151835Z 17006KT 13/01 A3036 RMK A01 T01310009  RH  044%=      5-min Rain = 0
KHA1 151840Z 20006KT 13/01 A3035 RMK A01 T01320011  RH  044%=      5-min Rain = 0
KHA1 151845Z 21005G11KT 14/01 A3035 RMK A01 T01360012  RH  044%=      5-min Rain = 0
KHA1 151850Z 20006G11KT 14/01 A3035 RMK A01 T01370013  RH  043%=      5-min Rain = 0
KHA1 151855Z 20007KT 14/01 A3034 RMK A01 T01370008  RH  042%=      5-min Rain = 0
KHA1 151900Z 18005KT 14/01 A3034 RMK A01 T01380011  RH  043%=      5-min Rain = 0
KHA1 151905Z 18006KT 14/01 A3034 RMK A01 T01370009  RH  042%=      5-min Rain = 0
KHA1 151910Z 19007KT 14/01 A3034 RMK A01 T01350009  RH  043%=      5-min Rain = 0
KHA1 151915Z 18006G12KT 14/01 A3033 RMK A01 T01370008  RH  042%=      5-min Rain = 0
KHA1 151920Z 19006G11KT 14/01 A3033 RMK A01 T01380010  RH  042%=      5-min Rain = 0
KHA1 151925Z 22006KT 14/01 A3032 RMK A01 T01420011  RH  041%=      5-min Rain = 0
KHA1 151930Z 20007KT 14/01 A3032 RMK A01 T01430009  RH  041%=      5-min Rain = 0
KHA1 151935Z 17006KT 14/01 A3032 RMK A01 T01440010  RH  040%=      5-min Rain = 0
KHA1 151940Z 18006KT 14/01 A3031 RMK A01 T01440011  RH  041%=      5-min Rain = 0
KHA1 151945Z 19007G12KT 14/01 A3031 RMK A01 T01430007  RH  040%=      5-min Rain = 0
KHA1 151950Z 21008KT 14/00 A3031 RMK A01 T01440003  RH  038%=      5-min Rain = 0
KHA1 151955Z 20006KT 15/00 A3031 RMK A01 T01460001  RH  038%=      5-min Rain = 0
KHA1 152000Z 20006KT 15/01 A303 RMK A01 T01490006  RH  038%=      5-min Rain = 0
KHA1 152005Z 21008KT 15/M00 A303 RMK A01 T01491004  RH  035%=      5-min Rain = 0
KHA1 152010Z 20006KT 15/M00 A303 RMK A01 T01491003  RH  036%=      5-min Rain = 0
KHA1 152015Z 18006KT 15/M00 A303 RMK A01 T01481003  RH  036%=      5-min Rain = 0
KHA1 152020Z 20007KT 15/M00 A303 RMK A01 T01511001  RH  036%=      5-min Rain = 0
KHA1 152025Z 21007KT 15/M00 A303 RMK A01 T01521004  RH  035%=      5-min Rain = 0
KHA1 152030Z 19007KT 15/M00 A303 RMK A01 T01511003  RH  035%=      5-min Rain = 0
KHA1 152035Z 20005G10KT 15/M00 A303 RMK A01 T01501003  RH  035%=      5-min Rain = 0
KHA1 152040Z 21008KT 15/M00 A3029 RMK A01 T01541002  RH  035%=      5-min Rain = 0
KHA1 152045Z 21005KT 15/00 A3029 RMK A01 T015400-0  RH  035%=      5-min Rain = 0
KHA1 152050Z 20007KT 15/M00 A3029 RMK A01 T01531002  RH  035%=      5-min Rain = 0
KHA1 152055Z 20005KT 16/M00 A3029 RMK A01 T01561003  RH  034%=      5-min Rain = 0
KHA1 152100Z 21007KT 16/00 A3029 RMK A01 T01570000  RH  035%=      5-min Rain = 0
KHA1 152105Z 21007KT 16/00 A3029 RMK A01 T015600-0  RH  035%=      5-min Rain = 0
KHA1 152110Z 19007G12KT 16/M00 A3028 RMK A01 T01551001  RH  035%=      5-min Rain = 0
KHA1 152115Z 19006KT 16/M00 A3028 RMK A01 T01561002  RH  035%=      5-min Rain = 0
KHA1 152120Z 21007KT 16/M00 A3028 RMK A01 T01551003  RH  034%=      5-min Rain = 0
KHA1 152125Z 20005KT 16/M00 A3028 RMK A01 T01561001  RH  035%=      5-min Rain = 0
KHA1 152130Z 20006KT 16/00 A3028 RMK A01 T01570001  RH  035%=      5-min Rain = 0
KHA1 152135Z 19006KT 16/00 A3027 RMK A01 T01580001  RH  035%=      5-min Rain = 0
KHA1 152140Z 20006KT 16/00 A3027 RMK A01 T01580001  RH  035%=      5-min Rain = 0
KHA1 152145Z 18005KT 16/M00 A3027 RMK A01 T01571001  RH  034%=      5-min Rain = 0
KHA1 152150Z 18005KT 16/00 A3027 RMK A01 T015700-0  RH  035%=      5-min Rain = 0
KHA1 152155Z 20007KT 16/00 A3026 RMK A01 T01570000  RH  035%=      5-min Rain = 0
KHA1 152200Z 18006KT 16/00 A3026 RMK A01 T01570002  RH  035%=      5-min Rain = 0
KHA1 152205Z 20005KT 16/00 A3026 RMK A01 T01590003  RH  035%=      5-min Rain = 0
KHA1 152210Z 19006KT 16/00 A3026 RMK A01 T01570001  RH  035%=      5-min Rain = 0
KHA1 152215Z 19006KT 16/00 A3025 RMK A01 T01560001  RH  035%=      5-min Rain = 0
KHA1 152220Z 20006KT 16/00 A3025 RMK A01 T01570003  RH  036%=      5-min Rain = 0
KHA1 152225Z 18005KT 16/00 A3025 RMK A01 T01560001  RH  035%=      5-min Rain = 0
KHA1 152230Z 17005KT 16/00 A3025 RMK A01 T01550001  RH  035%=      5-min Rain = 0
KHA1 152235Z 17006KT 15/M00 A3025 RMK A01 T01541001  RH  035%=      5-min Rain = 0
KHA1 152240Z 17004KT 15/00 A3025 RMK A01 T015300-0  RH  035%=      5-min Rain = 0
KHA1 152245Z 17005KT 15/00 A3025 RMK A01 T01530000  RH  036%=      5-min Rain = 0
KHA1 152250Z 17006KT 15/M00 A3025 RMK A01 T01521002  RH  035%=      5-min Rain = 0
KHA1 152255Z 17004KT 15/M00 A3024 RMK A01 T01511001  RH  036%=      5-min Rain = 0
KHA1 152300Z 17005KT 15/M00 A3024 RMK A01 T01511001  RH  036%=      5-min Rain = 0
KHA1 152305Z 16005KT 15/M00 A3024 RMK A01 T01491001  RH  036%=      5-min Rain = 0
KHA1 152310Z 16003KT 15/00 A3024 RMK A01 T014700-0  RH  037%=      5-min Rain = 0
KHA1 152315Z 16004KT 15/00 A3024 RMK A01 T014600-0  RH  037%=      5-min Rain = 0
KHA1 152320Z 16005KT 15/M00 A3024 RMK A01 T01451001  RH  037%=      5-min Rain = 0
KHA1 152325Z 16004KT 14/M00 A3024 RMK A01 T01431001  RH  037%=      5-min Rain = 0
KHA1 152330Z 15004KT 14/M00 A3024 RMK A01 T01401001  RH  038%=      5-min Rain = 0
KHA1 152335Z 14004KT 14/M00 A3024 RMK A01 T01381002  RH  038%=      5-min Rain = 0
KHA1 152340Z 14004KT 14/M00 A3024 RMK A01 T01361002  RH  039%=      5-min Rain = 0
KHA1 152345Z 14004KT 13/M00 A3024 RMK A01 T01341002  RH  040%=      5-min Rain = 0
KHA1 152350Z 14004KT 13/M00 A3024 RMK A01 T01311002  RH  040%=      5-min Rain = 0
KHA1 152355Z 14004KT 13/M00 A3024 RMK A01 T01291002  RH  041%=      5-min Rain = 0
KHA1 160000Z 14004KT 13/M00 A3024 RMK A01 T01281002  RH  041%=      5-min Rain = 0
KHA1 160005Z 14004KT 13/M00 A3024 RMK A01 T01271002  RH  041%=      5-min Rain = 0
KHA1 160010Z 14004KT 12/M00 A3023 RMK A01 T01241002  RH  042%=      5-min Rain = 0
KHA1 160015Z 14004KT 12/M00 A3023 RMK A01 T01221002  RH  043%=      5-min Rain = 0
KHA1 160020Z 14004KT 12/M00 A3023 RMK A01 T01211002  RH  043%=      5-min Rain = 0
KHA1 160025Z 14005KT 12/M00 A3023 RMK A01 T01201002  RH  044%=      5-min Rain = 0
KHA1 160030Z 14004KT 12/M00 A3023 RMK A01 T01191002  RH  044%=      5-min Rain = 0
KHA1 160035Z 14004KT 12/M00 A3023 RMK A01 T01201003  RH  043%=      5-min Rain = 0
KHA1 160040Z 15004KT 12/M00 A3023 RMK A01 T01211003  RH  043%=      5-min Rain = 0
KHA1 160045Z 15005KT 12/M00 A3024 RMK A01 T01221004  RH  042%=      5-min Rain = 0
KHA1 160050Z 15005KT 12/M01 A3023 RMK A01 T01211005  RH  042%=      5-min Rain = 0
KHA1 160055Z 15005KT 12/M01 A3024 RMK A01 T01211006  RH  042%=      5-min Rain = 0
KHA1 160100Z 15006KT 12/M01 A3024 RMK A01 T01211006  RH  042%=      5-min Rain = 0
KHA1 160105Z 15006KT 12/M01 A3024 RMK A01 T01211006  RH  042%=      5-min Rain = 0
KHA1 160110Z 15005KT 12/M01 A3024 RMK A01 T01211007  RH  042%=      5-min Rain = 0
KHA1 160115Z 15006KT 12/M01 A3024 RMK A01 T01201007  RH  042%=      5-min Rain = 0
KHA1 160120Z 15005KT 12/M01 A3024 RMK A01 T01181007  RH  042%=      5-min Rain = 0
KHA1 160125Z 15006KT 12/M01 A3024 RMK A01 T01171007  RH  043%=      5-min Rain = 0
KHA1 160130Z 16006KT 12/M01 A3024 RMK A01 T01151005  RH  044%=      5-min Rain = 0
KHA1 160135Z 16006KT 12/M01 A3024 RMK A01 T01161005  RH  044%=      5-min Rain = 0
KHA1 160140Z 15006KT 12/M01 A3024 RMK A01 T01161005  RH  044%=      5-min Rain = 0
KHA1 160145Z 14005KT 11/M01 A3024 RMK A01 T01131005  RH  044%=      5-min Rain = 0
KHA1 160150Z 14005KT 11/M00 A3024 RMK A01 T01071004  RH  047%=      5-min Rain = 0
KHA1 160155Z 13005KT 10/M00 A3024 RMK A01 T01031003  RH  048%=      5-min Rain = 0
KHA1 160200Z 13004KT 10/M00 A3024 RMK A01 T00991003  RH  050%=      5-min Rain = 0
KHA1 160205Z 13006KT 10/M00 A3024 RMK A01 T00971002  RH  051%=      5-min Rain = 0
KHA1 160210Z 13006KT 10/M00 A3024 RMK A01 T00961001  RH  051%=      5-min Rain = 0
KHA1 160215Z 14006KT 10/M00 A3024 RMK A01 T00971002  RH  050%=      5-min Rain = 0
KHA1 160220Z 14006KT 10/M00 A3024 RMK A01 T01001003  RH  049%=      5-min Rain = 0
KHA1 160225Z 15006KT 10/M00 A3024 RMK A01 T01021004  RH  048%=      5-min Rain = 0
KHA1 160230Z 15006KT 10/M00 A3024 RMK A01 T01021004  RH  048%=      5-min Rain = 0
KHA1 160235Z 15006KT 10/M00 A3024 RMK A01 T01021004  RH  048%=      5-min Rain = 0
KHA1 160240Z 15006KT 10/M00 A3024 RMK A01 T01001004  RH  049%=      5-min Rain = 0
KHA1 160245Z 14006KT 10/M00 A3024 RMK A01 T00981004  RH  050%=      5-min Rain = 0
KHA1 160250Z 15006KT 10/M00 A3024 RMK A01 T00971003  RH  050%=      5-min Rain = 0
KHA1 160255Z 15006KT 10/M00 A3024 RMK A01 T00951003  RH  051%=      5-min Rain = 0
KHA1 160300Z 15005KT 09/M00 A3024 RMK A01 T00931003  RH  052%=      5-min Rain = 0
KHA1 160305Z 15005KT 09/M00 A3023 RMK A01 T00931003  RH  052%=      5-min Rain = 0
KHA1 160310Z 15005KT 09/M00 A3023 RMK A01 T00921002  RH  052%=      5-min Rain = 0
KHA1 160315Z 15005KT 09/M00 A3023 RMK A01 T00901002  RH  053%=      5-min Rain = 0
KHA1 160320Z 16005KT 09/M00 A3023 RMK A01 T00881002  RH  054%=      5-min Rain = 0
KHA1 160325Z 16005KT 09/M00 A3023 RMK A01 T00871003  RH  054%=      5-min Rain = 0
KHA1 160330Z 16005KT 09/M00 A3023 RMK A01 T00861003  RH  054%=      5-min Rain = 0
KHA1 160335Z 16005KT 09/M00 A3023 RMK A01 T00851003  RH  054%=      5-min Rain = 0
KHA1 160340Z 17006KT 09/M00 A3023 RMK A01 T00851003  RH  055%=      5-min Rain = 0
KHA1 160345Z 17006KT 08/M00 A3023 RMK A01 T00841002  RH  055%=      5-min Rain = 0
KHA1 160350Z 17006KT 08/M00 A3023 RMK A01 T00821002  RH  056%=      5-min Rain = 0
KHA1 160355Z 17006KT 08/M00 A3023 RMK A01 T00821002  RH  056%=      5-min Rain = 0
KHA1 160400Z 17006KT 08/M00 A3023 RMK A01 T00821003  RH  056%=      5-min Rain = 0
KHA1 160405Z 17006KT 08/M00 A3023 RMK A01 T00811003  RH  056%=      5-min Rain = 0
KHA1 160410Z 17008KT 08/M00 A3023 RMK A01 T00811003  RH  056%=      5-min Rain = 0
KHA1 160415Z 17007KT 08/M00 A3023 RMK A01 T00801003  RH  056%=      5-min Rain = 0
KHA1 160420Z 17007KT 08/M00 A3023 RMK A01 T00781003  RH  057%=      5-min Rain = 0
KHA1 160425Z 17006KT 08/M00 A3022 RMK A01 T00771004  RH  057%=      5-min Rain = 0
KHA1 160430Z 17007KT 08/M00 A3022 RMK A01 T00791004  RH  056%=      5-min Rain = 0
KHA1 160435Z 17008KT 08/M01 A3022 RMK A01 T00811005  RH  055%=      5-min Rain = 0
KHA1 160440Z 17008KT 08/M01 A3022 RMK A01 T00811005  RH  055%=      5-min Rain = 0
KHA1 160445Z 17007KT 08/M01 A3022 RMK A01 T00791005  RH  056%=      5-min Rain = 0
KHA1 160450Z 17007KT 08/M00 A3022 RMK A01 T00771004  RH  057%=      5-min Rain = 0
KHA1 160455Z 17007KT 08/M01 A3022 RMK A01 T00771005  RH  057%=      5-min Rain = 0
KHA1 160500Z 17007KT 08/M01 A3022 RMK A01 T00751005  RH  057%=      5-min Rain = 0
KHA1 160505Z 17007KT 08/M01 A3022 RMK A01 T00751005  RH  057%=      5-min Rain = 0
KHA1 160510Z 17007KT 07/M01 A3022 RMK A01 T00741005  RH  058%=      5-min Rain = 0
KHA1 160515Z 17007KT 07/M01 A3022 RMK A01 T00721005  RH  059%=      5-min Rain = 0
KHA1 160520Z 18007KT 07/M00 A3021 RMK A01 T00691004  RH  060%=      5-min Rain = 0
KHA1 160525Z 17006KT 07/M00 A3021 RMK A01 T00671004  RH  061%=      5-min Rain = 0
KHA1 160530Z 18006KT 06/M00 A3021 RMK A01 T00641004  RH  063%=      5-min Rain = 0
KHA1 160535Z 17006KT 06/M00 A3021 RMK A01 T00611003  RH  064%=      5-min Rain = 0
KHA1 160540Z 18005KT 06/M00 A3021 RMK A01 T00591003  RH  065%=      5-min Rain = 0
KHA1 160545Z 18005KT 06/M00 A3021 RMK A01 T00571003  RH  066%=      5-min Rain = 0
KHA1 160550Z 17005KT 06/M00 A3021 RMK A01 T00561002  RH  067%=      5-min Rain = 0
KHA1 160555Z 17005KT 06/M00 A3021 RMK A01 T00561002  RH  067%=      5-min Rain = 0

Page generated in 0.0092 seconds.